M I D A S
Marine Information and Data Acquisition System
Tripno 1681 of the Zeeleeuw from 2009-04-24 06:37:32 to 2009-04-24 08:38:40
Back to CruiseResearch ActivitiesStationsMapUnderway DataData graphs

EquipmentUnitsComment
TimeDGPSUTC
LatitudeDGPSDM.mWGS84
LongitudeDGPSDM.mWGS84
HeadingGyrodeg 
SOGDGPSknotsSpeed over ground
COGDGPSdegCourse over ground
DepthEcho soundermeters200 kHz
Missing or incorrect values are displayed as -999
Navigation data collected by the RV Zeeleeuw from 2009-04-24 06:44:10 to 2009-04-24 11:29:50
                                                                                    Next 1000 lines
Time Latitude Longitude Heading SOG COG Depth
2009-04-24 06:44:20 51°13.661 2°55.957 111.7 0.4 281 -999
2009-04-24 06:44:25 51°13.662 2°55.955 111.7 0.9 299 -999
2009-04-24 06:44:30 51°13.662 2°55.952 111.7 1.4 288 -999
2009-04-24 06:44:35 51°13.664 2°55.947 111.8 2 295 -999
2009-04-24 06:44:40 51°13.665 2°55.942 112 2.4 293 -999
2009-04-24 06:44:45 51°13.667 2°55.936 113 2.9 295 -999
2009-04-24 06:44:50 51°13.669 2°55.93 114 3.2 297 -999
2009-04-24 06:44:55 51°13.671 2°55.923 114.9 3.4 298 -999
2009-04-24 06:45:00 51°13.674 2°55.916 115.3 3.6 299 -999
2009-04-24 06:45:05 51°13.676 2°55.909 115.3 3.7 297 -999
2009-04-24 06:45:10 51°13.678 2°55.902 113.8 3.7 297 -999
2009-04-24 06:45:15 51°13.68 2°55.894 111.9 3.8 292 -999
2009-04-24 06:45:20 51°13.682 2°55.886 109.6 3.7 292 -999
2009-04-24 06:45:25 51°13.683 2°55.879 107.3 3.6 288 -999
2009-04-24 06:45:30 51°13.685 2°55.871 105.1 3.6 287 -999
2009-04-24 06:45:35 51°13.686 2°55.864 103.1 3.4 282 -999
2009-04-24 06:45:40 51°13.687 2°55.857 100.9 3.4 283 -999
2009-04-24 06:45:45 51°13.687 2°55.849 98.7 3.4 278 -999
2009-04-24 06:45:50 51°13.688 2°55.842 96.7 3.4 278 -999
2009-04-24 06:45:55 51°13.688 2°55.834 95.5 3.5 274 7.2
2009-04-24 06:46:00 51°13.689 2°55.826 94.4 3.6 276 -999
2009-04-24 06:46:05 51°13.689 2°55.819 93.7 3.5 272 -999
2009-04-24 06:46:10 51°13.689 2°55.811 93 3.4 275 -999
2009-04-24 06:46:15 51°13.689 2°55.803 91.9 3.4 272 -999
2009-04-24 06:46:20 51°13.69 2°55.796 90.6 3.3 274 -999
2009-04-24 06:46:25 51°13.69 2°55.789 89.2 3.3 271 -999
2009-04-24 06:46:30 51°13.69 2°55.782 87.7 3.2 271 -999
2009-04-24 06:46:35 51°13.69 2°55.775 85.9 3 270 -999
2009-04-24 06:46:39 51°13.69 2°55.77 83.8 2.9 270 -999
2009-04-24 06:46:44 51°13.69 2°55.764 82.4 2.7 268 10.1
2009-04-24 06:46:49 51°13.689 2°55.759 81 2.1 270 -999
2009-04-24 06:46:55 51°13.69 2°55.756 79.2 1.3 274 10.9
2009-04-24 06:46:59 51°13.69 2°55.755 74.8 0.7 293 -999
2009-04-24 06:47:04 51°13.691 2°55.754 70.1 0.6 330 11
2009-04-24 06:47:09 51°13.692 2°55.754 64.8 0.6 8 11.2
2009-04-24 06:47:14 51°13.693 2°55.754 58.4 0.9 12 11.3
2009-04-24 06:47:19 51°13.694 2°55.755 53 1 18 11.3
2009-04-24 06:47:24 51°13.696 2°55.755 45.5 1.1 11 11.4
2009-04-24 06:47:28 51°13.697 2°55.756 40.7 1 15 11.2
2009-04-24 06:47:33 51°13.698 2°55.756 35.7 0.9 1 11.1
2009-04-24 06:47:38 51°13.699 2°55.756 31.3 0.6 353 11
2009-04-24 06:47:43 51°13.699 2°55.755 27.6 0.4 293 11
2009-04-24 06:47:48 51°13.699 2°55.754 23.9 0.5 256 11
2009-04-24 06:47:52 51°13.699 2°55.753 20.8 0.5 255 11.2
2009-04-24 06:47:57 51°13.699 2°55.752 17.4 0.5 294 11.4
2009-04-24 06:48:03 51°13.7 2°55.751 14.5 0.6 310 11.4
2009-04-24 06:48:07 51°13.701 2°55.75 11.6 1 334 11.3
2009-04-24 06:48:12 51°13.703 2°55.75 7.3 1.4 346 11.1
2009-04-24 06:48:17 51°13.705 2°55.748 2.3 1.9 338 10.8
2009-04-24 06:48:22 51°13.708 2°55.746 354.8 2.3 341 11.1
2009-04-24 06:48:27 51°13.712 2°55.744 347 2.6 332 10.8
2009-04-24 06:48:31 51°13.714 2°55.742 340 2.9 333 10.3
2009-04-24 06:48:36 51°13.719 2°55.737 335 3.7 327 10.3
2009-04-24 06:48:41 51°13.724 2°55.733 331.8 4.4 329 10.2
2009-04-24 06:48:46 51°13.729 2°55.727 330.5 4.8 327 10.1
2009-04-24 06:48:51 51°13.736 2°55.721 330.5 5.5 330 9.9
2009-04-24 06:48:55 51°13.741 2°55.715 330.9 5.9 328 9.9
2009-04-24 06:49:01 51°13.75 2°55.707 331.2 6.2 330 9.2
2009-04-24 06:49:06 51°13.758 2°55.7 332.7 6.5 332 8.9
2009-04-24 06:49:11 51°13.766 2°55.693 333.7 6.7 331 8.7
2009-04-24 06:49:16 51°13.774 2°55.685 332.9 6.9 331 8.7
2009-04-24 06:49:21 51°13.783 2°55.678 332.8 7.1 332 8.4
2009-04-24 06:49:26 51°13.792 2°55.671 334 7.2 334 8.7
2009-04-24 06:49:31 51°13.801 2°55.664 335.1 7.3 334 8.7
2009-04-24 06:49:36 51°13.811 2°55.657 335.8 7.4 335 8.7
2009-04-24 06:49:41 51°13.82 2°55.65 336.9 7.5 336 8.7
2009-04-24 06:49:46 51°13.83 2°55.643 337.1 7.6 335 8.4
2009-04-24 06:49:51 51°13.839 2°55.636 336.5 7.6 335 8.5
2009-04-24 06:49:55 51°13.847 2°55.63 336.1 7.7 335 9.1
2009-04-24 06:50:01 51°13.858 2°55.622 336.2 7.8 335 9
2009-04-24 06:50:06 51°13.868 2°55.614 336.1 7.8 334 8.9
2009-04-24 06:50:11 51°13.878 2°55.607 336.1 7.9 335 9.1
2009-04-24 06:50:16 51°13.888 2°55.599 336.7 7.9 335 9.2
2009-04-24 06:50:21 51°13.898 2°55.592 337.2 8 336 9.2
2009-04-24 06:50:26 51°13.908 2°55.584 337.1 8 334 9.3
2009-04-24 06:50:31 51°13.917 2°55.575 336.9 8.1 336 9.3
2009-04-24 06:50:35 51°13.925 2°55.569 337.5 8.1 335 9.2
2009-04-24 06:50:41 51°13.937 2°55.56 337.1 8.1 335 9.3
2009-04-24 06:50:46 51°13.947 2°55.552 336.7 8.1 335 9.2
2009-04-24 06:50:51 51°13.958 2°55.544 336.7 8.1 335 9.3
2009-04-24 06:50:55 51°13.966 2°55.538 336.5 8.1 334 9.3
2009-04-24 06:51:00 51°13.976 2°55.531 336.1 8 334 9.2
2009-04-24 06:51:06 51°13.988 2°55.522 336.1 7.9 334 9.2
2009-04-24 06:51:11 51°13.998 2°55.514 335.6 7.9 334 9.1
2009-04-24 06:51:16 51°14.008 2°55.508 335.4 7.9 334 9.1
2009-04-24 06:51:20 51°14.016 2°55.502 336.2 7.8 335 9
2009-04-24 06:51:26 51°14.027 2°55.492 336.7 7.8 334 9.1
2009-04-24 06:51:31 51°14.037 2°55.484 336.2 7.9 333 9.1
2009-04-24 06:51:36 51°14.047 2°55.476 335.8 7.9 334 9.2
2009-04-24 06:51:41 51°14.057 2°55.469 335.9 8 334 9.1
2009-04-24 06:51:46 51°14.068 2°55.461 335.8 8.2 333 9.1
2009-04-24 06:51:51 51°14.078 2°55.454 335.4 8.2 333 9.1
2009-04-24 06:51:56 51°14.089 2°55.446 335.4 8.3 333 9.1
2009-04-24 06:52:01 51°14.099 2°55.438 335.2 8.3 332 9
2009-04-24 06:52:06 51°14.109 2°55.428 334.6 8.4 332 9
2009-04-24 06:52:11 51°14.12 2°55.42 334.4 8.4 332 9.1
2009-04-24 06:52:16 51°14.13 2°55.411 334 8.5 331 9.1
2009-04-24 06:52:21 51°14.14 2°55.402 332.6 8.5 330 9
2009-04-24 06:52:26 51°14.151 2°55.392 331.7 8.5 329 9.1
2009-04-24 06:52:31 51°14.161 2°55.383 331.4 8.5 329 9
2009-04-24 06:52:35 51°14.169 2°55.374 330.7 8.5 327 9.1
2009-04-24 06:52:40 51°14.178 2°55.364 329.3 8.5 326 9.1
2009-04-24 06:52:46 51°14.19 2°55.351 327.8 8.5 325 9.1
2009-04-24 06:52:51 51°14.199 2°55.34 327 8.5 325 9.1
2009-04-24 06:52:56 51°14.208 2°55.329 326.1 8.5 323 9.1
2009-04-24 06:53:01 51°14.218 2°55.317 325.2 8.6 323 9.1
2009-04-24 06:53:06 51°14.227 2°55.305 323.8 8.6 320 9.2
2009-04-24 06:53:11 51°14.236 2°55.292 321.9 8.7 319 9.2
2009-04-24 06:53:16 51°14.245 2°55.28 321 8.7 319 9.1
2009-04-24 06:53:21 51°14.254 2°55.266 320 8.7 317 9.2
2009-04-24 06:53:26 51°14.262 2°55.253 318.8 8.8 316 9.2
2009-04-24 06:53:31 51°14.271 2°55.239 317.9 8.9 316 9.2
2009-04-24 06:53:36 51°14.28 2°55.225 316.8 8.9 313 9.1
2009-04-24 06:53:41 51°14.288 2°55.21 315.3 9 313 9
2009-04-24 06:53:46 51°14.297 2°55.195 314.4 9.1 312 9.1
2009-04-24 06:53:51 51°14.305 2°55.18 313 9.1 310 9
2009-04-24 06:53:56 51°14.313 2°55.164 312.2 9.1 310 9.1
2009-04-24 06:54:00 51°14.319 2°55.152 311.1 9.2 308 9.2
2009-04-24 06:54:06 51°14.328 2°55.132 309.7 9.2 308 9.1
2009-04-24 06:54:11 51°14.336 2°55.116 309.3 9.2 308 9.2
2009-04-24 06:54:16 51°14.344 2°55.1 309.3 9.3 308 9.2
2009-04-24 06:54:21 51°14.352 2°55.084 309 9.3 307 9.2
2009-04-24 06:54:26 51°14.36 2°55.067 308.4 9.4 307 9.2
2009-04-24 06:54:31 51°14.367 2°55.05 308.1 9.4 306 9
2009-04-24 06:54:36 51°14.375 2°55.033 307.6 9.5 305 8.8
2009-04-24 06:54:41 51°14.382 2°55.015 305.8 9.6 302 8.8
2009-04-24 06:54:46 51°14.389 2°54.997 304.1 9.6 301 8.8
2009-04-24 06:54:51 51°14.396 2°54.978 304 9.8 302 8.9
2009-04-24 06:54:56 51°14.403 2°54.959 304.1 10 301 9
2009-04-24 06:55:00 51°14.408 2°54.944 303.8 10.1 299 9
2009-04-24 06:55:06 51°14.416 2°54.92 302.8 10.3 296 9.1
2009-04-24 06:55:11 51°14.422 2°54.898 299.6 10.4 291 9.1
2009-04-24 06:55:16 51°14.426 2°54.876 294.8 10.5 287 9.1
2009-04-24 06:55:20 51°14.429 2°54.858 290.1 10.6 283 9.2
2009-04-24 06:55:26 51°14.431 2°54.83 285.2 10.8 276 9.1
2009-04-24 06:55:31 51°14.432 2°54.805 280.5 11 273 9.1
2009-04-24 06:55:35 51°14.432 2°54.785 276.4 11.2 270 9.1
2009-04-24 06:55:40 51°14.431 2°54.76 272.7 11.4 267 9.1
2009-04-24 06:55:46 51°14.429 2°54.73 269.8 11.6 264 9
2009-04-24 06:55:51 51°14.426 2°54.704 266.2 11.8 259 9
2009-04-24 06:55:55 51°14.423 2°54.684 261.9 11.9 256 8.9
2009-04-24 06:56:01 51°14.417 2°54.653 257.7 12 252 8.9
2009-04-24 06:56:05 51°14.412 2°54.633 254.5 12.2 250 8.9
2009-04-24 06:56:11 51°14.404 2°54.603 250.7 12.3 246 8.9
2009-04-24 06:56:16 51°14.397 2°54.578 247 12.4 245 8.9
2009-04-24 06:56:21 51°14.389 2°54.553 245.7 12.5 245 8.7
2009-04-24 06:56:26 51°14.382 2°54.528 245.9 12.6 246 8.3
2009-04-24 06:56:31 51°14.375 2°54.502 246.6 12.6 245 8.1
2009-04-24 06:56:35 51°14.369 2°54.482 246.8 12.6 246 8
2009-04-24 06:56:41 51°14.361 2°54.451 247.1 12.7 246 7.9
2009-04-24 06:56:46 51°14.353 2°54.426 247.3 12.7 245 7.9
2009-04-24 06:56:51 51°14.346 2°54.4 247.6 12.8 246 7.9
2009-04-24 06:56:56 51°14.338 2°54.374 247.3 12.8 245 7.8
2009-04-24 06:57:01 51°14.331 2°54.348 246.9 12.9 245 7.7
2009-04-24 06:57:06 51°14.324 2°54.323 246.8 12.9 245 7.7
2009-04-24 06:57:11 51°14.316 2°54.297 247.1 12.9 246 7.8
2009-04-24 06:57:15 51°14.31 2°54.276 247.5 12.9 245 7.8
2009-04-24 06:57:20 51°14.303 2°54.25 247.5 12.9 246 7.7
2009-04-24 06:57:26 51°14.294 2°54.218 247.5 13 245 7.6
2009-04-24 06:57:31 51°14.286 2°54.192 247.4 13 246 7.6
2009-04-24 06:57:35 51°14.28 2°54.171 247.6 13 246 7.6
2009-04-24 06:57:41 51°14.271 2°54.14 247.6 13 245 7.6
2009-04-24 06:57:46 51°14.264 2°54.114 247.6 13 246 7.4
2009-04-24 06:57:51 51°14.256 2°54.088 247.7 13 245 5.5
2009-04-24 06:57:56 51°14.249 2°54.062 247.6 13 245 5.6
2009-04-24 06:58:01 51°14.241 2°54.036 247.5 13 245 7.4
2009-04-24 06:58:06 51°14.234 2°54.009 247.1 13 245 7.4
2009-04-24 06:58:11 51°14.226 2°53.984 246.9 13 244 7.6
2009-04-24 06:58:15 51°14.219 2°53.963 246.6 13 244 7.6
2009-04-24 06:58:21 51°14.21 2°53.932 246.1 13.1 244 5.6
2009-04-24 06:58:26 51°14.202 2°53.906 245.8 13.1 243 5.6
2009-04-24 06:58:31 51°14.193 2°53.88 245.1 13.1 243 7.6
2009-04-24 06:58:36 51°14.185 2°53.854 244.6 13.1 243 7.6
2009-04-24 06:58:41 51°14.177 2°53.829 244.4 13.1 243 7.7
2009-04-24 06:58:46 51°14.168 2°53.803 243.6 13.2 241 7.7
2009-04-24 06:58:51 51°14.16 2°53.777 243.7 13.1 243 7.7
2009-04-24 06:58:56 51°14.151 2°53.752 243.9 13.1 242 7.7
2009-04-24 06:59:01 51°14.142 2°53.726 243.6 13.1 242 7.7
2009-04-24 06:59:06 51°14.133 2°53.701 243.3 13.2 242 7.7
2009-04-24 06:59:11 51°14.125 2°53.675 243.6 13.2 242 7.8
2009-04-24 06:59:15 51°14.118 2°53.655 243.7 13.2 242 7.7
2009-04-24 06:59:21 51°14.108 2°53.624 244 13.2 243 7.8
2009-04-24 06:59:26 51°14.099 2°53.598 244.3 13.1 242 7.8
2009-04-24 06:59:31 51°14.091 2°53.572 244.3 13.2 242 7.8
2009-04-24 06:59:35 51°14.084 2°53.552 244.2 13.2 242 7.8
2009-04-24 06:59:41 51°14.074 2°53.521 244.2 13.2 243 7.8
2009-04-24 06:59:46 51°14.066 2°53.495 244.3 13.2 243 7.9
2009-04-24 06:59:51 51°14.057 2°53.469 244.4 13.2 243 7.8
2009-04-24 06:59:56 51°14.049 2°53.443 244.7 13.2 243 7.9
2009-04-24 07:00:01 51°14.04 2°53.417 244.8 13.2 242 7.9
2009-04-24 07:00:06 51°14.032 2°53.392 244.7 13.1 243 8
2009-04-24 07:00:11 51°14.023 2°53.366 244.7 13.2 242 8
2009-04-24 07:00:16 51°14.015 2°53.34 244.2 13.2 242 8
2009-04-24 07:00:21 51°14.006 2°53.314 244.3 13.2 242 8
2009-04-24 07:00:26 51°13.998 2°53.289 244.4 13.2 242 8.1
2009-04-24 07:00:31 51°13.989 2°53.263 244.3 13.2 242 8.2
2009-04-24 07:00:36 51°13.981 2°53.237 244.4 13.2 243 8.2
2009-04-24 07:00:40 51°13.975 2°53.216 245.2 13.2 243 8.3
2009-04-24 07:00:46 51°13.965 2°53.185 245.2 13.2 243 8.3
2009-04-24 07:00:51 51°13.957 2°53.158 245.4 13.2 244 8.2
2009-04-24 07:00:56 51°13.948 2°53.132 245.5 13.2 243 8.2
2009-04-24 07:01:00 51°13.942 2°53.112 245.5 13.2 244 8.4
2009-04-24 07:01:06 51°13.932 2°53.08 245.6 13.2 243 8.4
2009-04-24 07:01:11 51°13.924 2°53.054 245.4 13.2 243 8.4
2009-04-24 07:01:16 51°13.915 2°53.028 245.2 13.2 243 8.5
2009-04-24 07:01:21 51°13.907 2°53.002 245.2 13.2 243 8.5
2009-04-24 07:01:26 51°13.899 2°52.976 245.1 13.2 243 8.6
2009-04-24 07:01:31 51°13.891 2°52.95 245.4 13.2 244 8.6
2009-04-24 07:01:36 51°13.883 2°52.924 245.6 13.2 244 8.6
2009-04-24 07:01:41 51°13.874 2°52.898 246 13.2 244 8.6
2009-04-24 07:01:46 51°13.866 2°52.871 246.1 13.2 244 8.7
2009-04-24 07:01:51 51°13.858 2°52.845 246.1 13.2 243 8.7
2009-04-24 07:01:55 51°13.852 2°52.824 246.1 13.2 244 8.7
2009-04-24 07:02:00 51°13.844 2°52.798 245.9 13.2 243 8.7
2009-04-24 07:02:06 51°13.833 2°52.767 245.1 13.3 244 8.8
2009-04-24 07:02:11 51°13.825 2°52.741 245.1 13.2 242 8.8
2009-04-24 07:02:15 51°13.818 2°52.721 244.4 13.2 241 8.8
2009-04-24 07:02:20 51°13.81 2°52.695 244 13.3 243 8.8
2009-04-24 07:02:25 51°13.801 2°52.669 244 13.3 241 8.8
2009-04-24 07:02:31 51°13.79 2°52.638 243.5 13.3 242 8.7
2009-04-24 07:02:35 51°13.783 2°52.617 243.7 13.2 241 8.8
2009-04-24 07:02:41 51°13.773 2°52.587 243.5 13.3 242 8.7
2009-04-24 07:02:45 51°13.766 2°52.566 243.5 13.2 242 8.8
2009-04-24 07:02:51 51°13.755 2°52.535 243.2 13.2 241 8.8
2009-04-24 07:02:56 51°13.747 2°52.509 243.2 13.2 242 8.8
2009-04-24 07:03:01 51°13.738 2°52.484 243.6 13.2 242 8.9
2009-04-24 07:03:06 51°13.729 2°52.458 244 13.2 242 8.9
2009-04-24 07:03:11 51°13.721 2°52.432 243.6 13.2 242 8.9
2009-04-24 07:03:16 51°13.712 2°52.407 243.7 13.2 242 8.9
2009-04-24 07:03:21 51°13.703 2°52.381 243.6 13.3 242 9
2009-04-24 07:03:26 51°13.694 2°52.355 243.5 13.2 241 9
2009-04-24 07:03:31 51°13.686 2°52.329 243.5 13.3 242 9
2009-04-24 07:03:35 51°13.679 2°52.309 243.6 13.3 242 9
2009-04-24 07:03:41 51°13.668 2°52.278 244.2 13.3 242 9
2009-04-24 07:03:46 51°13.659 2°52.252 243.9 13.3 241 9
2009-04-24 07:03:51 51°13.651 2°52.226 244 13.2 241 9
2009-04-24 07:03:55 51°13.644 2°52.206 243.6 13.3 242 9
2009-04-24 07:04:01 51°13.633 2°52.175 243.7 13.3 242 9
2009-04-24 07:04:06 51°13.625 2°52.149 243.9 13.3 241 9
2009-04-24 07:04:11 51°13.616 2°52.123 243.7 13.3 242 9
2009-04-24 07:04:16 51°13.607 2°52.097 243.9 13.3 242 9
2009-04-24 07:04:21 51°13.599 2°52.072 244 13.3 242 9.1
2009-04-24 07:04:26 51°13.59 2°52.046 243.8 13.3 242 9.1
2009-04-24 07:04:31 51°13.581 2°52.02 244 13.3 242 9.1
2009-04-24 07:04:36 51°13.572 2°51.994 244.2 13.3 242 9.1
2009-04-24 07:04:40 51°13.565 2°51.973 243.8 13.3 242 9.2
2009-04-24 07:04:46 51°13.555 2°51.942 244 13.3 242 9.2
2009-04-24 07:04:51 51°13.546 2°51.916 244 13.3 242 9.1
2009-04-24 07:04:56 51°13.538 2°51.89 244 13.3 242 9.2
2009-04-24 07:05:00 51°13.531 2°51.87 244 13.3 242 9.2
2009-04-24 07:05:06 51°13.521 2°51.839 244.1 13.3 242 9.3
2009-04-24 07:05:11 51°13.512 2°51.813 244.1 13.3 242 9.1
2009-04-24 07:05:16 51°13.504 2°51.787 244.1 13.3 243 9.2
2009-04-24 07:05:21 51°13.495 2°51.761 244.4 13.3 243 9.2
2009-04-24 07:05:26 51°13.487 2°51.735 244.5 13.3 242 9.2
2009-04-24 07:05:31 51°13.478 2°51.708 244.5 13.3 243 9.3
2009-04-24 07:05:36 51°13.47 2°51.683 244.5 13.3 243 9.3
2009-04-24 07:05:41 51°13.461 2°51.657 244.1 13.2 241 9.4
2009-04-24 07:05:46 51°13.452 2°51.632 244 13.1 240 9.3
2009-04-24 07:05:51 51°13.441 2°51.61 241.3 12.5 233 9.3
2009-04-24 07:05:55 51°13.433 2°51.594 233.7 11.9 227 9.2
2009-04-24 07:06:01 51°13.419 2°51.574 227 11.3 222 9.3
2009-04-24 07:06:06 51°13.407 2°51.559 220.9 10.8 218 9.3
2009-04-24 07:06:11 51°13.395 2°51.546 215.9 10.3 213 9.3
2009-04-24 07:06:15 51°13.385 2°51.537 211.1 10.1 210 9.3
2009-04-24 07:06:20 51°13.373 2°51.527 205.4 9.4 206 9.3
2009-04-24 07:06:26 51°13.36 2°51.518 201.6 8.7 204 9.3
2009-04-24 07:06:31 51°13.349 2°51.512 197.2 8 200 9.3
2009-04-24 07:06:35 51°13.341 2°51.507 193.9 7.6 199 9.3
2009-04-24 07:06:41 51°13.33 2°51.502 191.3 7.1 197 9.2
2009-04-24 07:06:46 51°13.321 2°51.498 188.1 6.8 196 9.2
2009-04-24 07:06:51 51°13.312 2°51.494 185.7 6.3 194 9.2
2009-04-24 07:06:55 51°13.305 2°51.491 183.5 6.1 194 9.2
2009-04-24 07:07:01 51°13.296 2°51.488 181.9 5.9 193 9.2
2009-04-24 07:07:05 51°13.29 2°51.486 180.3 5.6 193 9.2
2009-04-24 07:07:11 51°13.281 2°51.483 178.5 5.3 191 9.1
2009-04-24 07:07:16 51°13.274 2°51.481 177.2 5.2 191 9.1
2009-04-24 07:07:21 51°13.267 2°51.479 175.7 4.9 190 9
2009-04-24 07:07:26 51°13.261 2°51.477 174.1 4.8 189 9.1
2009-04-24 07:07:31 51°13.254 2°51.476 172.1 4.4 188 9
2009-04-24 07:07:36 51°13.249 2°51.474 170.9 4.3 188 8.9
2009-04-24 07:07:41 51°13.243 2°51.473 169.3 4.2 188 9
2009-04-24 07:07:46 51°13.237 2°51.472 168.5 4 188 8.9
2009-04-24 07:07:51 51°13.232 2°51.471 167.3 3.9 188 8.9
2009-04-24 07:07:55 51°13.228 2°51.47 166.6 3.8 188 8.9
2009-04-24 07:08:01 51°13.222 2°51.468 166.2 3.7 189 8.8
2009-04-24 07:08:06 51°13.217 2°51.467 166.1 3.6 190 8.9
2009-04-24 07:08:11 51°13.212 2°51.465 166.1 3.5 192 8.8
2009-04-24 07:08:16 51°13.207 2°51.464 166.6 3.4 193 8.8
2009-04-24 07:08:20 51°13.204 2°51.462 167.1 3.4 195 8.8
2009-04-24 07:08:26 51°13.198 2°51.46 167.8 3.3 195 8.8
2009-04-24 07:08:31 51°13.194 2°51.458 168.5 3.3 196 8.7
2009-04-24 07:08:36 51°13.19 2°51.456 169.3 3.2 197 8.8
2009-04-24 07:08:40 51°13.186 2°51.454 170.1 3.2 199 8.7
2009-04-24 07:08:46 51°13.182 2°51.452 170.9 3.1 200 8.7
2009-04-24 07:08:51 51°13.178 2°51.449 171.9 3.1 202 8.7
2009-04-24 07:08:56 51°13.173 2°51.447 172.9 3.1 203 8.7
2009-04-24 07:09:00 51°13.17 2°51.444 173.9 3 204 8.7
2009-04-24 07:09:06 51°13.166 2°51.441 174.7 3 204 8.7
2009-04-24 07:09:11 51°13.162 2°51.438 175.4 3 206 8.7
2009-04-24 07:09:16 51°13.158 2°51.435 176 3 206 8.6
2009-04-24 07:09:20 51°13.155 2°51.433 176.6 3 207 8.6
2009-04-24 07:09:26 51°13.151 2°51.429 177.2 2.9 208 8.6
2009-04-24 07:09:31 51°13.148 2°51.426 177.9 2.9 208 8.6
2009-04-24 07:09:35 51°13.145 2°51.424 178.3 2.9 209 8.6
2009-04-24 07:09:41 51°13.141 2°51.42 178.7 2.8 210 8.6
2009-04-24 07:09:46 51°13.137 2°51.417 179.2 2.8 210 8.6
2009-04-24 07:09:51 51°13.134 2°51.414 179.7 2.8 211 8.6
2009-04-24 07:09:55 51°13.131 2°51.412 180.2 2.7 212 8.6
2009-04-24 07:10:01 51°13.128 2°51.408 180.8 2.7 213 8.5
2009-04-24 07:10:06 51°13.125 2°51.405 181.5 2.7 214 8.5
2009-04-24 07:10:11 51°13.121 2°51.401 182.3 2.7 214 8.5
2009-04-24 07:10:16 51°13.118 2°51.398 183 2.7 215 8.5
2009-04-24 07:10:21 51°13.115 2°51.394 183.8 2.6 216 8.5
2009-04-24 07:10:26 51°13.113 2°51.391 184.7 2.6 217 8.5
2009-04-24 07:10:31 51°13.11 2°51.387 185.6 2.6 218 8.5
2009-04-24 07:10:35 51°13.107 2°51.385 186.4 2.6 218 8.5
2009-04-24 07:10:41 51°13.104 2°51.38 187.3 2.6 218 8.5
2009-04-24 07:10:46 51°13.101 2°51.377 188 2.6 219 8.5
2009-04-24 07:10:51 51°13.098 2°51.373 188.5 2.8 216 8.5
2009-04-24 07:10:55 51°13.095 2°51.37 189.3 2.9 216 8.5
2009-04-24 07:11:00 51°13.092 2°51.366 190.2 3.1 215 8.5
2009-04-24 07:11:06 51°13.087 2°51.361 191.5 3.3 215 8.5
2009-04-24 07:11:11 51°13.083 2°51.357 192.8 3.6 213 8.5
2009-04-24 07:11:15 51°13.08 2°51.353 194.4 3.8 213 8.5
2009-04-24 07:11:21 51°13.074 2°51.347 196.1 4 213 8.4
2009-04-24 07:11:25 51°13.071 2°51.343 198.1 4.2 214 8.4
2009-04-24 07:11:31 51°13.065 2°51.336 200.4 4.3 215 8.4
2009-04-24 07:11:35 51°13.061 2°51.332 202.6 4.5 217 8.4
2009-04-24 07:11:41 51°13.054 2°51.325 205 4.6 217 8.4
2009-04-24 07:11:46 51°13.049 2°51.318 207.5 4.7 219 8.4
2009-04-24 07:11:51 51°13.044 2°51.312 210.2 4.8 220 8.4
2009-04-24 07:11:56 51°13.039 2°51.304 211.8 4.9 221 8.4
2009-04-24 07:12:01 51°13.034 2°51.297 213.6 5 222 8.4
2009-04-24 07:12:06 51°13.029 2°51.289 215.6 5.1 224 8.4
2009-04-24 07:12:11 51°13.024 2°51.281 217.4 5.1 225 8.4
2009-04-24 07:12:16 51°13.019 2°51.273 219.1 5.2 226 8.3
2009-04-24 07:12:21 51°13.014 2°51.264 220.8 5.2 227 8.4
2009-04-24 07:12:26 51°13.009 2°51.256 222.6 5.2 227 8.4
2009-04-24 07:12:31 51°13.004 2°51.247 224.4 5.2 229 8.4
2009-04-24 07:12:36 51°12.999 2°51.238 226.1 5.3 230 8.4
2009-04-24 07:12:41 51°12.995 2°51.229 228 5.3 231 8.4
2009-04-24 07:12:46 51°12.991 2°51.22 229.6 5.2 233 8.4
2009-04-24 07:12:51 51°12.986 2°51.211 231.3 5.2 234 8.4
2009-04-24 07:12:55 51°12.983 2°51.203 232.9 5.1 235 8.4
2009-04-24 07:13:01 51°12.978 2°51.192 234.2 5 236 8.4
2009-04-24 07:13:06 51°12.974 2°51.183 235.7 5 237 8.4
2009-04-24 07:13:11 51°12.971 2°51.174 237 5 238 8.4
2009-04-24 07:13:16 51°12.967 2°51.165 238.5 4.9 239 8.4
2009-04-24 07:13:20 51°12.964 2°51.157 239.7 4.9 240 8.4
2009-04-24 07:13:26 51°12.96 2°51.146 241 4.8 240 8.4
2009-04-24 07:13:31 51°12.957 2°51.137 242.2 4.8 241 8.4
2009-04-24 07:13:36 51°12.954 2°51.128 243.3 4.7 241 8.4
2009-04-24 07:13:40 51°12.951 2°51.12 244.3 4.7 242 8.4
2009-04-24 07:13:46 51°12.948 2°51.109 245.1 4.7 243 8.4
2009-04-24 07:13:51 51°12.945 2°51.1 245.8 4.6 243 8.4
2009-04-24 07:13:56 51°12.942 2°51.091 246.6 4.6 243 8.4
2009-04-24 07:14:00 51°12.94 2°51.084 247.3 4.6 244 8.4
2009-04-24 07:14:06 51°12.937 2°51.073 247.7 4.5 244 8.4
2009-04-24 07:14:11 51°12.934 2°51.064 248 4.5 244 8.4
2009-04-24 07:14:15 51°12.932 2°51.057 248.3 4.5 245 8.4
2009-04-24 07:14:21 51°12.929 2°51.046 248.3 4.4 244 8.4
2009-04-24 07:14:26 51°12.926 2°51.038 248.2 4.3 245 8.5
2009-04-24 07:14:31 51°12.924 2°51.029 248.1 4.3 244 8.4
2009-04-24 07:14:36 51°12.921 2°51.021 248 4.2 244 8.4
2009-04-24 07:14:41 51°12.919 2°51.012 247.7 4.2 244 8.4
2009-04-24 07:14:46 51°12.916 2°51.004 247.4 4.2 244 8.4
2009-04-24 07:14:51 51°12.913 2°50.996 246.9 4.1 244 8.5
2009-04-24 07:14:56 51°12.911 2°50.988 246.2 4.1 243 8.4
2009-04-24 07:15:01 51°12.908 2°50.98 245.5 4.1 243 8.4
2009-04-24 07:15:06 51°12.906 2°50.972 244.8 4 243 8.4
2009-04-24 07:15:11 51°12.903 2°50.964 244.2 4 242 8.4
2009-04-24 07:15:15 51°12.901 2°50.958 243.9 4 242 8.4
2009-04-24 07:15:21 51°12.898 2°50.949 243.4 3.9 241 8.4
2009-04-24 07:15:26 51°12.896 2°50.941 243.2 3.9 241 8.4
2009-04-24 07:15:31 51°12.893 2°50.934 242.9 3.9 242 8.5
2009-04-24 07:15:35 51°12.891 2°50.928 242.7 3.9 242 8.4
2009-04-24 07:15:40 51°12.888 2°50.92 242.5 3.9 242 8.4
2009-04-24 07:15:46 51°12.885 2°50.911 242.5 3.9 242 8.5
2009-04-24 07:15:51 51°12.883 2°50.904 242.4 3.9 242 8.4
2009-04-24 07:15:55 51°12.881 2°50.898 242.4 3.9 241 8.4
2009-04-24 07:16:01 51°12.878 2°50.889 242.4 3.9 242 8.4
2009-04-24 07:16:06 51°12.875 2°50.881 242.3 3.8 241 8.5
2009-04-24 07:16:11 51°12.873 2°50.874 242.2 3.8 241 8.4
2009-04-24 07:16:15 51°12.87 2°50.868 242.1 3.8 242 8.5
2009-04-24 07:16:20 51°12.868 2°50.861 242.1 3.8 241 8.4
2009-04-24 07:16:26 51°12.865 2°50.852 242.1 3.8 242 8.5
2009-04-24 07:16:31 51°12.862 2°50.845 242.1 3.8 242 8.5
2009-04-24 07:16:35 51°12.861 2°50.839 242.3 3.8 242 8.5
2009-04-24 07:16:41 51°12.858 2°50.83 242.3 3.8 241 8.4
2009-04-24 07:16:46 51°12.855 2°50.823 242.5 3.8 242 8.5
2009-04-24 07:16:51 51°12.853 2°50.815 242.5 3.7 242 8.4
2009-04-24 07:16:56 51°12.85 2°50.808 242.7 3.7 242 8.4
2009-04-24 07:17:01 51°12.848 2°50.801 242.8 3.7 241 8.4
2009-04-24 07:17:06 51°12.845 2°50.794 243 3.7 242 8.4
2009-04-24 07:17:11 51°12.843 2°50.786 243.1 3.7 242 8.4
2009-04-24 07:17:16 51°12.84 2°50.779 243.2 3.7 243 8.4
2009-04-24 07:17:21 51°12.838 2°50.772 243.5 3.7 243 8.4
2009-04-24 07:17:26 51°12.836 2°50.764 243.8 3.7 243 8.5
2009-04-24 07:17:31 51°12.833 2°50.757 243.9 3.7 243 8.5
2009-04-24 07:17:35 51°12.831 2°50.751 244.1 3.7 243 8.5
2009-04-24 07:17:40 51°12.829 2°50.744 244.2 3.7 243 8.5
2009-04-24 07:17:46 51°12.826 2°50.735 244.3 3.7 244 8.5
2009-04-24 07:17:51 51°12.824 2°50.728 244.5 3.7 243 8.4
2009-04-24 07:17:55 51°12.822 2°50.722 244.6 3.7 243 8.5
2009-04-24 07:18:01 51°12.82 2°50.713 244.7 3.7 243 8.5
2009-04-24 07:18:06 51°12.817 2°50.706 244.7 3.7 243 8.5
2009-04-24 07:18:11 51°12.815 2°50.698 244.7 3.7 243 8.5
2009-04-24 07:18:15 51°12.813 2°50.692 244.7 3.7 243 8.5
2009-04-24 07:18:21 51°12.81 2°50.684 244.7 3.7 243 8.5
2009-04-24 07:18:26 51°12.808 2°50.676 244.7 3.7 243 8.5
2009-04-24 07:18:31 51°12.806 2°50.669 244.6 3.7 243 8.5
2009-04-24 07:18:36 51°12.803 2°50.662 244.6 3.7 242 8.5
2009-04-24 07:18:41 51°12.801 2°50.655 244.6 3.7 243 8.5
2009-04-24 07:18:46 51°12.799 2°50.648 244.7 3.7 243 8.5
2009-04-24 07:18:51 51°12.796 2°50.64 244.9 3.7 243 8.5
2009-04-24 07:18:55 51°12.795 2°50.634 245 3.6 243 8.5
2009-04-24 07:19:01 51°12.792 2°50.626 245.3 3.6 243 8.5
2009-04-24 07:19:05 51°12.79 2°50.62 245.4 3.6 244 8.5
2009-04-24 07:19:11 51°12.787 2°50.612 245.4 3.6 243 8.5
2009-04-24 07:19:16 51°12.785 2°50.604 245.5 3.6 243 8.5
2009-04-24 07:19:21 51°12.783 2°50.597 245.6 3.6 243 8.5
2009-04-24 07:19:26 51°12.78 2°50.59 245.7 3.6 244 8.5
2009-04-24 07:19:31 51°12.778 2°50.583 245.9 3.6 244 8.5
2009-04-24 07:19:36 51°12.776 2°50.576 246.1 3.6 244 8.5
2009-04-24 07:19:41 51°12.774 2°50.569 246.3 3.6 244 8.5
2009-04-24 07:19:46 51°12.771 2°50.562 246.5 3.6 244 8.5
2009-04-24 07:19:51 51°12.769 2°50.555 246.8 3.6 244 8.5
2009-04-24 07:19:55 51°12.768 2°50.549 246.9 3.6 244 8.6
2009-04-24 07:20:01 51°12.765 2°50.54 247.2 3.6 244 8.5
2009-04-24 07:20:06 51°12.763 2°50.533 247.5 3.6 244 8.5
2009-04-24 07:20:11 51°12.76 2°50.526 247.6 3.6 244 8.5
2009-04-24 07:20:15 51°12.759 2°50.52 247.9 3.6 245 8.5
2009-04-24 07:20:21 51°12.756 2°50.511 248.1 3.6 245 8.5
2009-04-24 07:20:26 51°12.754 2°50.504 248.3 3.6 245 8.6
2009-04-24 07:20:31 51°12.752 2°50.497 248.3 3.6 245 8.6
2009-04-24 07:20:36 51°12.75 2°50.49 248.3 3.6 245 8.6
2009-04-24 07:20:41 51°12.748 2°50.483 248.3 3.6 245 8.5
2009-04-24 07:20:46 51°12.746 2°50.476 248.3 3.6 245 8.5
2009-04-24 07:20:51 51°12.743 2°50.469 248.2 3.6 245 8.6
2009-04-24 07:20:56 51°12.741 2°50.461 248.1 3.6 245 8.6
2009-04-24 07:21:01 51°12.739 2°50.454 247.9 3.6 245 8.6
2009-04-24 07:21:06 51°12.737 2°50.447 247.9 3.6 246 8.6
2009-04-24 07:21:11 51°12.735 2°50.44 247.9 3.6 246 8.6
2009-04-24 07:21:16 51°12.733 2°50.432 247.8 3.6 245 8.5
2009-04-24 07:21:21 51°12.731 2°50.425 247.7 3.6 246 8.6
2009-04-24 07:21:26 51°12.729 2°50.418 247.6 3.6 246 8.6
2009-04-24 07:21:31 51°12.726 2°50.411 247.5 3.6 245 8.6
2009-04-24 07:21:36 51°12.724 2°50.404 247.4 3.6 245 8.6
2009-04-24 07:21:40 51°12.723 2°50.398 247.3 3.6 245 8.6
2009-04-24 07:21:46 51°12.72 2°50.389 247.3 3.6 244 8.5
2009-04-24 07:21:51 51°12.718 2°50.382 247.1 3.6 246 8.5
2009-04-24 07:21:56 51°12.716 2°50.375 246.9 3.6 245 8.6
2009-04-24 07:22:01 51°12.714 2°50.368 246.9 3.6 245 8.5
2009-04-24 07:22:06 51°12.711 2°50.36 246.8 3.6 245 8.6
2009-04-24 07:22:11 51°12.709 2°50.353 246.6 3.6 245 8.6
2009-04-24 07:22:16 51°12.707 2°50.346 246.5 3.6 244 8.6
2009-04-24 07:22:20 51°12.705 2°50.34 246.3 3.6 245 8.6
2009-04-24 07:22:26 51°12.703 2°50.332 246.2 3.6 245 8.6
2009-04-24 07:22:31 51°12.701 2°50.325 246.2 3.6 244 8.6
2009-04-24 07:22:35 51°12.699 2°50.319 246.1 3.6 244 8.6
2009-04-24 07:22:40 51°12.697 2°50.312 246.1 3.6 244 8.6
2009-04-24 07:22:46 51°12.694 2°50.303 246.1 3.6 244 8.6
2009-04-24 07:22:51 51°12.692 2°50.296 246 3.6 243 8.6
2009-04-24 07:22:55 51°12.69 2°50.29 246 3.6 244 8.6
2009-04-24 07:23:01 51°12.687 2°50.282 245.9 3.6 244 8.6
2009-04-24 07:23:06 51°12.685 2°50.274 245.8 3.6 244 8.6
2009-04-24 07:23:11 51°12.683 2°50.267 245.8 3.6 244 8.6
2009-04-24 07:23:16 51°12.681 2°50.26 245.8 3.6 244 8.6
2009-04-24 07:23:21 51°12.679 2°50.253 245.8 3.6 244 8.6
2009-04-24 07:23:26 51°12.676 2°50.246 245.7 3.6 244 8.6
2009-04-24 07:23:31 51°12.674 2°50.238 245.8 3.6 244 8.6
2009-04-24 07:23:35 51°12.672 2°50.233 246 3.6 244 8.6
2009-04-24 07:23:41 51°12.67 2°50.224 246.1 3.7 244 8.5
2009-04-24 07:23:46 51°12.667 2°50.217 246.2 3.6 244 8.6
2009-04-24 07:23:51 51°12.665 2°50.21 246.4 3.6 244 8.6
2009-04-24 07:23:55 51°12.663 2°50.204 246.5 3.7 244 8.6
2009-04-24 07:24:01 51°12.661 2°50.195 246.6 3.7 244 8.6
2009-04-24 07:24:06 51°12.659 2°50.188 246.6 3.6 244 8.6
2009-04-24 07:24:11 51°12.656 2°50.18 246.7 3.6 245 8.6
2009-04-24 07:24:15 51°12.655 2°50.175 246.7 3.6 244 8.5
2009-04-24 07:24:21 51°12.652 2°50.166 246.7 3.7 244 8.5
2009-04-24 07:24:26 51°12.65 2°50.159 246.6 3.7 244 8.6
2009-04-24 07:24:31 51°12.648 2°50.151 246.5 3.7 245 8.6
2009-04-24 07:24:35 51°12.646 2°50.145 246.3 3.7 244 8.6
2009-04-24 07:24:40 51°12.643 2°50.138 246.3 3.7 245 8.6
2009-04-24 07:24:46 51°12.641 2°50.13 246.2 3.7 244 8.6
2009-04-24 07:24:51 51°12.639 2°50.122 246.2 3.7 245 8.6
2009-04-24 07:24:55 51°12.637 2°50.116 246.2 3.7 244 8.6
2009-04-24 07:25:00 51°12.635 2°50.109 246.4 3.7 245 8.6
2009-04-24 07:25:06 51°12.632 2°50.1 246.5 3.7 244 8.6
2009-04-24 07:25:11 51°12.63 2°50.093 246.7 3.7 244 8.6
2009-04-24 07:25:15 51°12.628 2°50.087 246.8 3.7 245 8.6
2009-04-24 07:25:21 51°12.626 2°50.079 246.9 3.7 245 8.6
2009-04-24 07:25:25 51°12.624 2°50.073 246.9 3.7 244 8.6
2009-04-24 07:25:31 51°12.621 2°50.064 246.9 3.7 245 8.6
2009-04-24 07:25:36 51°12.619 2°50.057 246.9 3.7 244 8.6
2009-04-24 07:25:41 51°12.617 2°50.049 246.9 3.7 244 8.7
2009-04-24 07:25:46 51°12.615 2°50.042 246.9 3.7 244 8.6
2009-04-24 07:25:51 51°12.612 2°50.035 246.9 3.6 245 8.7
2009-04-24 07:25:56 51°12.61 2°50.028 246.9 3.6 244 8.7
2009-04-24 07:26:01 51°12.608 2°50.02 246.9 3.6 245 8.7
2009-04-24 07:26:06 51°12.606 2°50.013 246.9 3.6 245 8.7
2009-04-24 07:26:11 51°12.604 2°50.006 246.9 3.7 245 8.6
2009-04-24 07:26:16 51°12.601 2°49.999 247.1 3.7 245 8.7
2009-04-24 07:26:21 51°12.599 2°49.992 247.5 3.6 244 8.7
2009-04-24 07:26:26 51°12.597 2°49.984 247.6 3.6 245 8.7
2009-04-24 07:26:31 51°12.595 2°49.977 247.8 3.6 245 8.7
2009-04-24 07:26:35 51°12.593 2°49.971 247.8 3.6 246 8.7
2009-04-24 07:26:41 51°12.591 2°49.962 247.9 3.6 245 8.7
2009-04-24 07:26:46 51°12.589 2°49.955 248.1 3.6 246 8.7
2009-04-24 07:26:51 51°12.587 2°49.947 248.3 3.6 246 8.7
2009-04-24 07:26:56 51°12.585 2°49.94 248.5 3.6 245 8.7
2009-04-24 07:27:01 51°12.583 2°49.933 248.7 3.6 246 8.7
2009-04-24 07:27:06 51°12.58 2°49.926 248.9 3.6 246 8.7
2009-04-24 07:27:11 51°12.579 2°49.918 249.1 3.6 246 8.7
2009-04-24 07:27:16 51°12.576 2°49.911 249.3 3.6 246 8.7
2009-04-24 07:27:21 51°12.574 2°49.903 249.6 3.6 246 8.7
2009-04-24 07:27:26 51°12.572 2°49.896 249.7 3.6 247 8.7
2009-04-24 07:27:31 51°12.57 2°49.889 249.8 3.6 246 8.7
2009-04-24 07:27:36 51°12.568 2°49.881 249.8 3.6 247 8.7
2009-04-24 07:27:40 51°12.567 2°49.875 249.8 3.6 246 8.7
2009-04-24 07:27:46 51°12.564 2°49.866 250 3.6 247 8.7
2009-04-24 07:27:51 51°12.562 2°49.859 250 3.6 247 8.8
2009-04-24 07:27:56 51°12.56 2°49.852 250.1 3.6 247 8.7
2009-04-24 07:28:00 51°12.559 2°49.846 250.1 3.6 247 8.7
2009-04-24 07:28:06 51°12.557 2°49.837 250.2 3.6 248 8.8
2009-04-24 07:28:11 51°12.555 2°49.83 250.2 3.6 247 8.8
2009-04-24 07:28:16 51°12.553 2°49.823 250.2 3.6 247 8.8
2009-04-24 07:28:21 51°12.551 2°49.815 250.1 3.6 247 8.8
2009-04-24 07:28:26 51°12.549 2°49.808 249.9 3.6 247 8.8
2009-04-24 07:28:31 51°12.547 2°49.801 249.8 3.6 247 8.8
2009-04-24 07:28:36 51°12.545 2°49.793 249.6 3.6 247 8.7
2009-04-24 07:28:41 51°12.543 2°49.786 249.5 3.6 247 8.8
2009-04-24 07:28:46 51°12.541 2°49.779 249.4 3.6 247 8.8
2009-04-24 07:28:51 51°12.539 2°49.771 249.3 3.6 246 8.8
2009-04-24 07:28:55 51°12.537 2°49.766 249.1 3.6 246 8.8
2009-04-24 07:29:01 51°12.535 2°49.757 249 3.6 246 8.8
2009-04-24 07:29:06 51°12.533 2°49.75 249 3.6 246 8.8
2009-04-24 07:29:11 51°12.531 2°49.742 249 3.6 246 8.8
2009-04-24 07:29:15 51°12.529 2°49.737 249 3.6 246 8.8
2009-04-24 07:29:20 51°12.527 2°49.729 249 3.6 246 8.8
2009-04-24 07:29:26 51°12.525 2°49.721 249.1 3.6 246 8.8
2009-04-24 07:29:31 51°12.523 2°49.713 249.2 3.6 247 8.8
2009-04-24 07:29:35 51°12.521 2°49.708 249.3 3.6 246 8.8
2009-04-24 07:29:40 51°12.519 2°49.7 249.3 3.6 246 8.8
2009-04-24 07:29:46 51°12.517 2°49.692 249.3 3.6 246 8.8
2009-04-24 07:29:51 51°12.515 2°49.684 249.3 3.6 247 8.8
2009-04-24 07:29:55 51°12.514 2°49.678 249.3 3.6 247 8.8
2009-04-24 07:30:01 51°12.511 2°49.67 249.3 3.6 247 8.8
2009-04-24 07:30:06 51°12.509 2°49.662 249.3 3.6 246 8.8
2009-04-24 07:30:11 51°12.507 2°49.655 249.4 3.6 247 8.8
2009-04-24 07:30:16 51°12.505 2°49.648 249.5 3.6 246 8.9
2009-04-24 07:30:21 51°12.503 2°49.641 249.7 3.6 247 8.8
2009-04-24 07:30:26 51°12.501 2°49.633 249.8 3.6 247 8.8
2009-04-24 07:30:31 51°12.499 2°49.626 250 3.6 248 8.9
2009-04-24 07:30:36 51°12.497 2°49.619 250.2 3.6 247 8.9
2009-04-24 07:30:41 51°12.495 2°49.611 250.3 3.6 248 8.9
2009-04-24 07:30:46 51°12.493 2°49.604 250.4 3.6 247 8.9
2009-04-24 07:30:51 51°12.492 2°49.597 250.4 3.6 247 8.9
2009-04-24 07:30:55 51°12.49 2°49.591 250.4 3.6 247 8.9
2009-04-24 07:31:01 51°12.488 2°49.582 250.3 3.5 247 8.9
2009-04-24 07:31:06 51°12.486 2°49.575 250.1 3.6 247 8.9
2009-04-24 07:31:11 51°12.484 2°49.568 250 3.6 247 8.9
2009-04-24 07:31:15 51°12.483 2°49.562 249.9 3.6 247 8.9
2009-04-24 07:31:21 51°12.48 2°49.554 249.9 3.6 247 8.9
2009-04-24 07:31:26 51°12.478 2°49.546 249.8 3.5 247 8.9
2009-04-24 07:31:31 51°12.476 2°49.539 249.7 3.5 247 8.9
2009-04-24 07:31:35 51°12.474 2°49.534 249.7 3.5 247 8.9
2009-04-24 07:31:41 51°12.472 2°49.525 249.6 3.5 247 8.9
2009-04-24 07:31:46 51°12.47 2°49.518 249.6 3.5 247 8.9
2009-04-24 07:31:51 51°12.468 2°49.511 249.6 3.5 247 8.9
2009-04-24 07:31:55 51°12.467 2°49.505 249.6 3.5 247 9
2009-04-24 07:32:01 51°12.465 2°49.497 249.6 3.5 247 9
2009-04-24 07:32:06 51°12.463 2°49.489 249.6 3.5 247 9
2009-04-24 07:32:11 51°12.461 2°49.482 249.6 3.5 247 9
2009-04-24 07:32:16 51°12.459 2°49.475 249.6 3.5 247 9
2009-04-24 07:32:21 51°12.457 2°49.468 249.5 3.5 247 9
2009-04-24 07:32:26 51°12.455 2°49.461 249.4 3.5 247 9
2009-04-24 07:32:31 51°12.453 2°49.454 249.4 3.5 247 9
2009-04-24 07:32:36 51°12.451 2°49.447 249.4 3.5 246 9
2009-04-24 07:32:41 51°12.449 2°49.44 249.4 3.5 246 9
2009-04-24 07:32:46 51°12.447 2°49.433 249.3 3.5 247 9
2009-04-24 07:32:51 51°12.446 2°49.426 249.3 3.5 246 9
2009-04-24 07:32:56 51°12.444 2°49.419 249.3 3.5 247 9
2009-04-24 07:33:01 51°12.442 2°49.412 249.3 3.5 247 9.1
2009-04-24 07:33:06 51°12.44 2°49.405 249.3 3.5 247 9.1
2009-04-24 07:33:11 51°12.438 2°49.398 249.3 3.5 246 9
2009-04-24 07:33:15 51°12.436 2°49.392 249.3 3.5 247 9.1
2009-04-24 07:33:21 51°12.434 2°49.384 249.3 3.5 247 9.1
2009-04-24 07:33:26 51°12.432 2°49.377 249.3 3.5 247 9.1
2009-04-24 07:33:31 51°12.43 2°49.37 249.3 3.5 247 9.1
2009-04-24 07:33:36 51°12.428 2°49.362 249.3 3.5 247 9.1
2009-04-24 07:33:41 51°12.426 2°49.356 249.4 3.5 247 9.1
2009-04-24 07:33:46 51°12.424 2°49.349 249.5 3.4 247 9.1
2009-04-24 07:33:51 51°12.422 2°49.342 249.5 3.4 247 9.1
2009-04-24 07:33:56 51°12.421 2°49.335 249.4 3.4 247 9.1
2009-04-24 07:34:00 51°12.419 2°49.329 249.4 3.4 247 9.1
2009-04-24 07:34:06 51°12.417 2°49.321 249.3 3.4 247 9.1
2009-04-24 07:34:11 51°12.415 2°49.314 249.2 3.4 247 9.1
2009-04-24 07:34:16 51°12.413 2°49.307 249.2 3.4 247 9.1
2009-04-24 07:34:20 51°12.411 2°49.301 249.2 3.4 247 9.1
2009-04-24 07:34:26 51°12.409 2°49.293 249 3.4 247 9.1
2009-04-24 07:34:31 51°12.407 2°49.286 249 3.5 246 9.2
2009-04-24 07:34:36 51°12.405 2°49.279 249.1 3.4 247 9.2
2009-04-24 07:34:41 51°12.403 2°49.272 249.1 3.5 246 9.2
2009-04-24 07:34:46 51°12.402 2°49.265 249.1 3.5 247 9.2
2009-04-24 07:34:51 51°12.4 2°49.258 249.2 3.4 247 9.2
2009-04-24 07:34:55 51°12.398 2°49.252 249.3 3.4 247 9.2
2009-04-24 07:35:01 51°12.396 2°49.244 249.3 3.5 246 9.2
2009-04-24 07:35:06 51°12.394 2°49.237 249.3 3.5 248 9.2
2009-04-24 07:35:11 51°12.392 2°49.23 249.3 3.5 247 9.2
2009-04-24 07:35:16 51°12.39 2°49.223 249.3 3.5 247 9.2
2009-04-24 07:35:21 51°12.388 2°49.215 249.2 3.5 247 9.2
2009-04-24 07:35:26 51°12.387 2°49.209 249.2 3.5 247 9.2
2009-04-24 07:35:31 51°12.385 2°49.202 249.1 3.5 247 9.3
2009-04-24 07:35:35 51°12.383 2°49.196 249.1 3.5 248 9.2
2009-04-24 07:35:41 51°12.381 2°49.187 249.1 3.5 247 9.2
2009-04-24 07:35:46 51°12.379 2°49.18 249.1 3.4 248 9.2
2009-04-24 07:35:51 51°12.377 2°49.173 249.2 3.4 247 9.2
2009-04-24 07:35:55 51°12.376 2°49.168 249.3 3.4 248 9.3
2009-04-24 07:36:01 51°12.374 2°49.159 249.5 3.4 248 9.3
2009-04-24 07:36:06 51°12.372 2°49.152 249.7 3.4 248 9.2
2009-04-24 07:36:11 51°12.37 2°49.145 249.8 3.5 248 9.3
2009-04-24 07:36:16 51°12.368 2°49.138 249.9 3.5 248 9.3
2009-04-24 07:36:21 51°12.366 2°49.131 249.9 3.5 248 9.3
2009-04-24 07:36:26 51°12.364 2°49.124 250 3.5 248 9.3
2009-04-24 07:36:31 51°12.363 2°49.117 250.1 3.5 248 9.4
2009-04-24 07:36:36 51°12.361 2°49.11 250.1 3.5 248 9.3
2009-04-24 07:36:41 51°12.359 2°49.103 250.1 3.4 248 9.3
2009-04-24 07:36:46 51°12.357 2°49.096 250.1 3.4 248 9.3
2009-04-24 07:36:51 51°12.355 2°49.089 250 3.4 248 9.3
2009-04-24 07:36:56 51°12.354 2°49.082 249.8 3.4 248 9.3
2009-04-24 07:37:01 51°12.352 2°49.075 249.7 3.4 248 9.3
2009-04-24 07:37:06 51°12.35 2°49.068 249.6 3.4 248 9.3
2009-04-24 07:37:11 51°12.348 2°49.061 249.6 3.4 248 9.3
2009-04-24 07:37:16 51°12.347 2°49.054 249.6 3.4 248 9.3
2009-04-24 07:37:21 51°12.345 2°49.047 249.5 3.4 248 9.3
2009-04-24 07:37:26 51°12.343 2°49.04 249.6 3.4 248 9.3
2009-04-24 07:37:31 51°12.342 2°49.033 249.7 3.4 249 9.3
2009-04-24 07:37:36 51°12.34 2°49.026 249.8 3.4 248 9.3
2009-04-24 07:37:40 51°12.338 2°49.021 250 3.4 249 9.4
2009-04-24 07:37:46 51°12.336 2°49.013 250 3.4 248 9.4
2009-04-24 07:37:51 51°12.335 2°49.006 249.9 3.4 248 9.4
2009-04-24 07:37:56 51°12.333 2°48.999 249.9 3.4 248 9.4
2009-04-24 07:38:00 51°12.331 2°48.993 249.7 3.4 248 9.4
2009-04-24 07:38:06 51°12.329 2°48.985 249.5 3.4 247 9.4
2009-04-24 07:38:11 51°12.327 2°48.978 249.2 3.4 248 9.4
2009-04-24 07:38:16 51°12.326 2°48.971 249 3.4 248 9.4
2009-04-24 07:38:20 51°12.324 2°48.965 249 3.4 247 9.5
2009-04-24 07:38:26 51°12.322 2°48.957 248.9 3.4 248 9.4
2009-04-24 07:38:31 51°12.321 2°48.95 248.7 3.4 247 9.5
2009-04-24 07:38:36 51°12.319 2°48.943 248.6 3.4 248 9.5
2009-04-24 07:38:40 51°12.317 2°48.938 248.5 3.4 247 9.5
2009-04-24 07:38:46 51°12.315 2°48.93 248.3 3.4 248 9.5
2009-04-24 07:38:51 51°12.313 2°48.923 248.3 3.4 248 9.5
2009-04-24 07:38:55 51°12.312 2°48.918 248.2 3.3 248 9.5
2009-04-24 07:39:01 51°12.31 2°48.909 248.2 3.3 247 9.5
2009-04-24 07:39:06 51°12.308 2°48.902 248.3 3.3 248 9.5
2009-04-24 07:39:11 51°12.306 2°48.896 248.5 3.3 248 9.5
2009-04-24 07:39:16 51°12.305 2°48.889 248.7 3.3 249 9.5
2009-04-24 07:39:21 51°12.303 2°48.882 248.9 3.3 248 9.5
2009-04-24 07:39:26 51°12.301 2°48.875 249 3.3 249 9.5
2009-04-24 07:39:31 51°12.3 2°48.869 249.1 3.3 248 9.6
2009-04-24 07:39:36 51°12.298 2°48.862 249.3 3.2 249 9.6
2009-04-24 07:39:41 51°12.296 2°48.855 249.4 3.2 249 9.6
2009-04-24 07:39:46 51°12.295 2°48.849 249.6 3.2 249 9.6
2009-04-24 07:39:51 51°12.293 2°48.842 249.8 3.2 249 9.6
2009-04-24 07:39:56 51°12.291 2°48.835 249.8 3.2 249 9.6
2009-04-24 07:40:01 51°12.29 2°48.829 249.9 3.2 250 9.6
2009-04-24 07:40:06 51°12.288 2°48.822 250 3.2 250 9.6
2009-04-24 07:40:11 51°12.287 2°48.815 250.1 3.2 249 9.6
2009-04-24 07:40:15 51°12.285 2°48.81 250.2 3.2 249 9.6
2009-04-24 07:40:21 51°12.284 2°48.802 250.2 3.2 249 9.6
2009-04-24 07:40:26 51°12.282 2°48.795 250.3 3.2 249 9.6
2009-04-24 07:40:31 51°12.28 2°48.789 250.3 3.2 249 9.7
2009-04-24 07:40:36 51°12.279 2°48.782 250.3 3.2 250 9.6
2009-04-24 07:40:41 51°12.277 2°48.776 250.3 3.2 250 9.6
2009-04-24 07:40:46 51°12.276 2°48.769 250.3 3.2 250 9.7
2009-04-24 07:40:51 51°12.274 2°48.763 250.3 3.2 250 9.7
2009-04-24 07:40:56 51°12.273 2°48.756 250.3 3.2 249 9.6
2009-04-24 07:41:01 51°12.271 2°48.75 250.4 3.2 249 9.7
2009-04-24 07:41:06 51°12.269 2°48.743 250.6 3.2 249 9.7
2009-04-24 07:41:11 51°12.268 2°48.736 251.2 3.2 250 9.6
2009-04-24 07:41:16 51°12.266 2°48.729 251.7 3.2 250 9.7
2009-04-24 07:41:21 51°12.265 2°48.723 252.4 3.2 250 9.7
2009-04-24 07:41:26 51°12.263 2°48.716 252.8 3.1 251 9.7
2009-04-24 07:41:31 51°12.262 2°48.71 253.5 3.1 251 9.7
2009-04-24 07:41:36 51°12.261 2°48.703 254.1 3.1 252 9.7
2009-04-24 07:41:40 51°12.259 2°48.698 254.8 3.1 251 9.7
2009-04-24 07:41:46 51°12.258 2°48.69 255.3 3.1 251 9.7
2009-04-24 07:41:51 51°12.257 2°48.684 255.7 3.1 251 9.8
2009-04-24 07:41:56 51°12.255 2°48.677 256.3 3.1 251 9.7
2009-04-24 07:42:00 51°12.254 2°48.672 256.6 3.1 252 9.8
2009-04-24 07:42:06 51°12.252 2°48.664 257 3.2 253 9.7
2009-04-24 07:42:11 51°12.251 2°48.657 257.5 3.2 253 9.7
2009-04-24 07:42:16 51°12.25 2°48.651 258 3.2 253 9.8
2009-04-24 07:42:21 51°12.249 2°48.644 258.5 3.2 253 9.8
2009-04-24 07:42:26 51°12.247 2°48.637 259.1 3.2 253 9.8
2009-04-24 07:42:31 51°12.246 2°48.63 259.6 3.1 254 9.8
2009-04-24 07:42:35 51°12.245 2°48.625 259.9 3.1 254 9.8
2009-04-24 07:42:41 51°12.244 2°48.617 260 3 253 9.8
2009-04-24 07:42:46 51°12.243 2°48.611 260 3 253 9.8
2009-04-24 07:42:51 51°12.241 2°48.605 259.6 2.9 253 9.8
2009-04-24 07:42:55 51°12.24 2°48.6 259.2 2.9 253 9.8
2009-04-24 07:43:01 51°12.239 2°48.593 258.6 2.9 252 9.8
2009-04-24 07:43:06 51°12.238 2°48.587 258.1 2.8 251 9.8
2009-04-24 07:43:11 51°12.236 2°48.581 257.2 2.8 251 9.8
2009-04-24 07:43:15 51°12.235 2°48.576 256.5 2.8 251 9.8
2009-04-24 07:43:21 51°12.234 2°48.569 255.6 2.7 250 9.9
2009-04-24 07:43:25 51°12.233 2°48.565 254.9 2.7 250 9.9
2009-04-24 07:43:31 51°12.231 2°48.558 254 2.6 249 9.9
2009-04-24 07:43:36 51°12.23 2°48.553 253.3 2.6 250 9.9
2009-04-24 07:43:41 51°12.229 2°48.548 252.6 2.6 248 9.9
2009-04-24 07:43:46 51°12.227 2°48.542 252 2.5 248 9.9
2009-04-24 07:43:51 51°12.226 2°48.537 251.3 2.5 248 9.9
2009-04-24 07:43:56 51°12.225 2°48.532 250.7 2.5 248 9.9
2009-04-24 07:44:01 51°12.223 2°48.527 250.1 2.4 248 10
2009-04-24 07:44:06 51°12.222 2°48.522 249.7 2.4 247 10
2009-04-24 07:44:11 51°12.221 2°48.517 249.2 2.4 247 9.9
2009-04-24 07:44:16 51°12.219 2°48.512 248.8 2.4 247 9.9
2009-04-24 07:44:21 51°12.218 2°48.508 248.4 2.3 246 9.9
2009-04-24 07:44:26 51°12.217 2°48.503 248 2.3 247 9.9
2009-04-24 07:44:31 51°12.215 2°48.499 247.5 2.3 246 9.9
2009-04-24 07:44:35 51°12.214 2°48.495 247.1 2.3 247 9.9
2009-04-24 07:44:41 51°12.213 2°48.489 246.7 2.2 245 9.9
2009-04-24 07:44:46 51°12.211 2°48.485 246.2 2.2 246 9.9
2009-04-24 07:44:51 51°12.21 2°48.481 245.8 2.2 244 9.9
2009-04-24 07:44:56 51°12.209 2°48.476 245.4 2.2 245 9.9
2009-04-24 07:45:01 51°12.208 2°48.472 245 2.1 245 9.9
2009-04-24 07:45:06 51°12.207 2°48.468 244.6 2.1 246 9.9
2009-04-24 07:45:11 51°12.205 2°48.464 244.1 2.1 244 9.9
2009-04-24 07:45:16 51°12.204 2°48.459 243.8 2.1 244 9.9
2009-04-24 07:45:21 51°12.203 2°48.455 243.2 2.2 244 9.9
2009-04-24 07:45:26 51°12.201 2°48.451 242.3 2.4 242 9.9
2009-04-24 07:45:31 51°12.2 2°48.446 240.5 2.5 240 10
2009-04-24 07:45:36 51°12.198 2°48.441 237.8 2.6 239 10
2009-04-24 07:45:40 51°12.196 2°48.437 234.5 2.6 236 10
2009-04-24 07:45:46 51°12.194 2°48.432 231 2.6 235 10
2009-04-24 07:45:51 51°12.192 2°48.427 227.3 2.6 232 9.9
2009-04-24 07:45:56 51°12.189 2°48.423 224.9 2.7 232 9.9
2009-04-24 07:46:01 51°12.187 2°48.418 221.7 2.7 229 10
2009-04-24 07:46:06 51°12.184 2°48.414 218.3 2.7 228 9.9
2009-04-24 07:46:11 51°12.181 2°48.409 214.9 2.8 225 9.9
2009-04-24 07:46:16 51°12.179 2°48.405 211.6 2.8 223 9.9
2009-04-24 07:46:21 51°12.176 2°48.401 208.1 2.8 221 9.9
2009-04-24 07:46:26 51°12.172 2°48.397 204.8 2.8 218 9.9
2009-04-24 07:46:31 51°12.169 2°48.393 200.8 2.9 215 9.9
2009-04-24 07:46:35 51°12.166 2°48.391 197.1 3 213 9.9
2009-04-24 07:46:41 51°12.162 2°48.387 193.9 3 209 9.8
2009-04-24 07:46:46 51°12.159 2°48.384 189.8 3 206 9.8
2009-04-24 07:46:51 51°12.155 2°48.381 185.9 3 204 9.8
2009-04-24 07:46:55 51°12.152 2°48.379 181.8 3 202 9.8
2009-04-24 07:47:01 51°12.147 2°48.377 177.9 2.9 199 9.8
2009-04-24 07:47:06 51°12.143 2°48.375 174.1 2.9 196 9.7
2009-04-24 07:47:11 51°12.139 2°48.374 170.3 2.8 192 9.7
2009-04-24 07:47:15 51°12.136 2°48.373 166.4 2.8 191 9.7
2009-04-24 07:47:21 51°12.131 2°48.372 162.5 2.8 187 9.7
2009-04-24 07:47:26 51°12.128 2°48.371 158.5 2.7 184 9.7
2009-04-24 07:47:31 51°12.124 2°48.371 154.6 2.6 180 9.6
2009-04-24 07:47:35 51°12.121 2°48.372 150.5 2.6 178 9.6
2009-04-24 07:47:41 51°12.117 2°48.372 146.4 2.5 174 9.6
2009-04-24 07:47:46 51°12.114 2°48.373 142.1 2.4 170 9.6
2009-04-24 07:47:51 51°12.11 2°48.374 137.8 2.3 166 9.5
2009-04-24 07:47:56 51°12.107 2°48.376 133.6 2.3 162 9.6
2009-04-24 07:48:01 51°12.105 2°48.378 129.3 2.2 158 9.5
2009-04-24 07:48:06 51°12.102 2°48.38 124.8 2.1 153 9.4
2009-04-24 07:48:11 51°12.1 2°48.382 119 2 145 9.4
2009-04-24 07:48:16 51°12.098 2°48.385 115 2 139 9.4
2009-04-24 07:48:21 51°12.096 2°48.388 109.9 1.9 134 9.3
2009-04-24 07:48:26 51°12.095 2°48.391 104.7 1.8 127 9.3
2009-04-24 07:48:31 51°12.094 2°48.395 99.7 1.7 118 9.4
2009-04-24 07:48:36 51°12.093 2°48.398 94.5 1.6 111 9.3
2009-04-24 07:48:41 51°12.092 2°48.401 89.3 1.6 105 9.3
2009-04-24 07:48:46 51°12.092 2°48.405 84 1.4 97 9.3
2009-04-24 07:48:51 51°12.092 2°48.408 79 1.2 89 9.3
2009-04-24 07:48:56 51°12.092 2°48.41 74.9 1.1 87 9.3
2009-04-24 07:49:01 51°12.093 2°48.412 71.7 1 82 9.3
2009-04-24 07:49:06 51°12.093 2°48.414 68.8 0.9 77 9.3
2009-04-24 07:49:11 51°12.093 2°48.416 66.4 0.8 73 9.3
2009-04-24 07:49:16 51°12.093 2°48.417 64.4 0.7 65 9.3
2009-04-24 07:49:20 51°12.094 2°48.418 62.7 0.6 61 9.3
2009-04-24 07:49:26 51°12.094 2°48.42 61.1 0.6 54 9.3
2009-04-24 07:49:31 51°12.095 2°48.421 59.6 0.5 50 9.3
2009-04-24 07:49:36 51°12.095 2°48.422 58.3 0.5 45 9.3
2009-04-24 07:49:40 51°12.096 2°48.422 57.1 0.5 37 9.3
2009-04-24 07:49:46 51°12.096 2°48.423 55.9 0.4 30 9.3
2009-04-24 07:49:51 51°12.097 2°48.423 54.6 0.4 20 9.3
2009-04-24 07:49:56 51°12.097 2°48.423 53.5 0.4 18 9.3
2009-04-24 07:50:00 51°12.098 2°48.423 52.4 0.4 12 9.3
2009-04-24 07:50:06 51°12.098 2°48.423 51.6 0.4 3 9.3
2009-04-24 07:50:11 51°12.099 2°48.423 50.8 0.4 354 9.3
2009-04-24 07:50:16 51°12.099 2°48.423 50 0.4 355 9.3
2009-04-24 07:50:21 51°12.1 2°48.423 49.3 0.4 345 9.3
2009-04-24 07:50:26 51°12.101 2°48.423 48.6 0.4 341 9.3
2009-04-24 07:50:31 51°12.101 2°48.422 48 0.4 337 9.3
2009-04-24 07:50:36 51°12.102 2°48.422 47.5 0.4 333 9.3
2009-04-24 07:50:41 51°12.102 2°48.421 47.2 0.4 328 9.3
2009-04-24 07:50:46 51°12.103 2°48.421 46.7 0.5 324 9.3
2009-04-24 07:50:51 51°12.103 2°48.42 46.4 0.5 321 9.4
2009-04-24 07:50:56 51°12.104 2°48.419 46.1 0.5 320 9.4
2009-04-24 07:51:01 51°12.104 2°48.418 45.9 0.5 316 9.4
2009-04-24 07:51:06 51°12.105 2°48.417 45.8 0.5 314 9.4
2009-04-24 07:51:11 51°12.105 2°48.417 45.6 0.5 311 9.4
2009-04-24 07:51:16 51°12.105 2°48.416 45.6 0.5 310 9.4
2009-04-24 07:51:21 51°12.106 2°48.415 45.6 0.5 306 9.4
2009-04-24 07:51:26 51°12.106 2°48.414 45.6 0.5 304 9.4
2009-04-24 07:51:31 51°12.106 2°48.413 45.6 0.5 300 9.4
2009-04-24 07:51:36 51°12.107 2°48.411 45.6 0.5 300 9.4
2009-04-24 07:51:40 51°12.107 2°48.411 45.6 0.5 297 9.4
2009-04-24 07:51:46 51°12.107 2°48.409 45.7 0.5 294 9.4
2009-04-24 07:51:51 51°12.107 2°48.408 45.7 0.5 291 9.4
2009-04-24 07:51:55 51°12.108 2°48.407 45.7 0.5 290 9.4
2009-04-24 07:52:01 51°12.108 2°48.406 45.8 0.5 288 9.5
2009-04-24 07:52:06 51°12.108 2°48.405 45.8 0.6 288 9.4
2009-04-24 07:52:11 51°12.108 2°48.403 45.8 0.6 283 9.5
2009-04-24 07:52:16 51°12.108 2°48.402 45.9 0.6 284 9.5
2009-04-24 07:52:21 51°12.108 2°48.401 45.9 0.6 283 9.5
2009-04-24 07:52:26 51°12.108 2°48.4 45.9 0.6 282 9.5
2009-04-24 07:52:31 51°12.109 2°48.398 46 0.6 279 9.5
2009-04-24 07:52:36 51°12.108 2°48.397 46.1 0.6 276 9.5
2009-04-24 07:52:41 51°12.108 2°48.396 46.2 0.6 276 9.5
2009-04-24 07:52:46 51°12.108 2°48.395 46.4 0.6 273 9.5
2009-04-24 07:52:51 51°12.109 2°48.393 46.5 0.6 273 9.6
2009-04-24 07:52:56 51°12.109 2°48.392 46.6 0.6 271 9.6
2009-04-24 07:53:01 51°12.109 2°48.39 46.8 0.7 276 9.6
2009-04-24 07:53:06 51°12.109 2°48.39 47.1 0.5 288 9.6
2009-04-24 07:53:11 51°12.11 2°48.389 46.7 0.5 322 9.6
2009-04-24 07:53:16 51°12.111 2°48.389 46 0.5 351 9.6
2009-04-24 07:53:21 51°12.111 2°48.389 45.8 0.7 2 9.6
2009-04-24 07:53:26 51°12.113 2°48.39 45.8 0.8 21 9.6
2009-04-24 07:53:31 51°12.114 2°48.39 46.9 1.1 25 9.6
2009-04-24 07:53:36 51°12.116 2°48.392 48.1 1.2 34 9.6
2009-04-24 07:53:40 51°12.117 2°48.393 49.8 1.4 38 9.6
2009-04-24 07:53:46 51°12.119 2°48.396 51.7 1.6 44 9.6
2009-04-24 07:53:51 51°12.12 2°48.399 53.9 1.8 47 9.6
2009-04-24 07:53:55 51°12.122 2°48.402 56 1.9 52 9.6
2009-04-24 07:54:00 51°12.123 2°48.405 58.3 2.1 56 9.6
2009-04-24 07:54:06 51°12.125 2°48.411 60.5 2.3 60 9.6
2009-04-24 07:54:11 51°12.127 2°48.415 62.9 2.4 62 9.5
2009-04-24 07:54:16 51°12.129 2°48.42 65.1 2.5 65 9.6
2009-04-24 07:54:21 51°12.13 2°48.425 67.1 2.6 67 9.6
2009-04-24 07:54:26 51°12.131 2°48.431 68.5 2.7 70 9.6
2009-04-24 07:54:31 51°12.132 2°48.437 69.7 3.1 70 9.6
2009-04-24 07:54:35 51°12.134 2°48.443 70.5 3.3 71 9.6
2009-04-24 07:54:40 51°12.135 2°48.45 71.2 3.6 72 9.6
2009-04-24 07:54:46 51°12.137 2°48.459 71.8 3.8 73 9.6
2009-04-24 07:54:51 51°12.139 2°48.468 72.6 3.9 74 9.5
2009-04-24 07:54:55 51°12.14 2°48.474 72.7 4 72 9.5
2009-04-24 07:55:01 51°12.142 2°48.485 71.6 4.2 71 9.5
2009-04-24 07:55:06 51°12.144 2°48.494 70.1 4.3 69 9.6
2009-04-24 07:55:11 51°12.147 2°48.503 67.7 4.5 68 9.5
2009-04-24 07:55:16 51°12.15 2°48.512 66.1 4.6 66 9.5
2009-04-24 07:55:21 51°12.152 2°48.521 65.7 4.7 67 9.5
2009-04-24 07:55:26 51°12.155 2°48.531 66 4.7 67 9.5
2009-04-24 07:55:31 51°12.157 2°48.541 66.8 4.8 69 9.5
2009-04-24 07:55:36 51°12.159 2°48.551 68.1 4.9 69 9.5
2009-04-24 07:55:41 51°12.162 2°48.561 69 4.9 70 9.5
2009-04-24 07:55:46 51°12.164 2°48.571 69.4 4.6 70 9.4
2009-04-24 07:55:51 51°12.166 2°48.58 69.7 4.3 70 9.4
2009-04-24 07:55:56 51°12.168 2°48.588 69.8 4.1 71 9.4
2009-04-24 07:56:01 51°12.17 2°48.596 70.5 3.8 72 9.4
2009-04-24 07:56:06 51°12.171 2°48.603 71.4 3.3 74 9.4
2009-04-24 07:56:11 51°12.172 2°48.61 72.7 2.8 76 9.4
2009-04-24 07:56:15 51°12.172 2°48.614 74.8 2.3 77 9.4
2009-04-24 07:56:21 51°12.173 2°48.618 77.7 1.7 83 9.4
2009-04-24 07:56:26 51°12.173 2°48.622 79.2 1.5 82 9.4
2009-04-24 07:56:31 51°12.174 2°48.625 79.1 1.4 85 9.4
2009-04-24 07:56:36 51°12.174 2°48.628 78.3 1.3 83 9.4
2009-04-24 07:56:41 51°12.174 2°48.63 77.5 1.2 82 9.4
2009-04-24 07:56:46 51°12.174 2°48.633 76.8 1.1 87 9.4
2009-04-24 07:56:51 51°12.174 2°48.635 76.1 1.1 95 9.4
2009-04-24 07:56:55 51°12.174 2°48.637 75.4 1 68 9.4
2009-04-24 07:57:00 51°12.174 2°48.639 74.8 0.9 93 9.4
2009-04-24 07:57:06 51°12.175 2°48.641 74.2 0.8 69 9.4
2009-04-24 07:57:11 51°12.175 2°48.643 73.7 0.8 89 9.4
2009-04-24 07:57:16 51°12.175 2°48.644 73.3 0.7 69 9.4
2009-04-24 07:57:21 51°12.175 2°48.646 72.9 0.7 86 9.4
2009-04-24 07:57:26 51°12.175 2°48.647 72.7 0.6 67 9.4
2009-04-24 07:57:31 51°12.175 2°48.648 72.1 0.6 83 9.4
2009-04-24 07:57:36 51°12.176 2°48.649 71.8 0.5 61 9.4
2009-04-24 07:57:41 51°12.176 2°48.65 71.3 0.5 78 9.4
2009-04-24 07:57:46 51°12.176 2°48.651 70.9 0.4 61 9.4
2009-04-24 07:57:51 51°12.176 2°48.652 70.5 0.4 79 9.4
2009-04-24 07:57:56 51°12.177 2°48.653 70.1 0.3 59 9.4
2009-04-24 07:58:01 51°12.177 2°48.653 69.8 0.3 72 9.4
2009-04-24 07:58:06 51°12.177 2°48.654 69.5 0.3 56 9.4
2009-04-24 07:58:11 51°12.177 2°48.654 69 0.2 69 9.4
2009-04-24 07:58:16 51°12.177 2°48.655 68.7 0.2 40 9.4
2009-04-24 07:58:21 51°12.178 2°48.655 68.2 0.2 51 9.4
2009-04-24 07:58:26 51°12.178 2°48.655 67.8 0.2 23 9.4
2009-04-24 07:58:31 51°12.178 2°48.655 67.4 0.1 32 9.4
2009-04-24 07:58:36 51°12.178 2°48.655 67 0.1 4 9.4
2009-04-24 07:58:40 51°12.178 2°48.655 66.5 0.1 334 9.4
2009-04-24 07:58:46 51°12.179 2°48.655 66.1 0.1 323 9.4
2009-04-24 07:58:51 51°12.179 2°48.655 65.6 0.2 315 9.4
2009-04-24 07:58:55 51°12.179 2°48.654 65.3 0.2 308 9.4
2009-04-24 07:59:01 51°12.179 2°48.654 64.6 0.2 304 9.4
2009-04-24 07:59:06 51°12.179 2°48.653 64.2 0.3 300 9.4
2009-04-24 07:59:11 51°12.179 2°48.653 63.5 0.3 294 9.4
2009-04-24 07:59:16 51°12.18 2°48.652 63.1 0.3 292 9.4
2009-04-24 07:59:20 51°12.18 2°48.651 62.5 0.3 287 9.4
2009-04-24 07:59:26 51°12.18 2°48.651 62.1 0.3 290 9.4
2009-04-24 07:59:31 51°12.18 2°48.65 61.7 0.3 287 9.4
2009-04-24 07:59:36 51°12.18 2°48.649 61.4 0.4 283 9.4
2009-04-24 07:59:41 51°12.18 2°48.648 61.1 0.4 283 9.4
2009-04-24 07:59:46 51°12.18 2°48.647 60.9 0.4 278 9.4
2009-04-24 07:59:51 51°12.18 2°48.646 60.5 0.4 282 9.4
2009-04-24 07:59:56 51°12.18 2°48.645 60.3 0.4 281 9.4
2009-04-24 08:00:01 51°12.181 2°48.644 60.2 0.5 278 9.4
2009-04-24 08:00:06 51°12.181 2°48.643 60.1 0.5 275 9.4
2009-04-24 08:00:11 51°12.181 2°48.642 60 0.5 276 9.5
2009-04-24 08:00:16 51°12.181 2°48.641 59.9 0.5 270 9.5
2009-04-24 08:00:21 51°12.181 2°48.64 59.8 0.5 271 9.5
2009-04-24 08:00:26 51°12.181 2°48.639 59.8 0.5 270 9.5
2009-04-24 08:00:31 51°12.181 2°48.637 59.7 0.5 271 9.5
2009-04-24 08:00:36 51°12.181 2°48.636 59.7 0.5 268 9.5
2009-04-24 08:00:41 51°12.181 2°48.635 59.7 0.6 271 9.5
2009-04-24 08:00:46 51°12.181 2°48.634 59.7 0.5 268 9.5
2009-04-24 08:00:51 51°12.181 2°48.633 59.7 0.6 269 9.5
2009-04-24 08:00:55 51°12.181 2°48.632 59.6 0.6 266 9.5
2009-04-24 08:01:01 51°12.181 2°48.63 59.6 0.6 269 9.5
2009-04-24 08:01:06 51°12.181 2°48.629 59.5 0.6 267 9.5
2009-04-24 08:01:11 51°12.181 2°48.627 59.2 0.6 268 9.5
2009-04-24 08:01:15 51°12.181 2°48.626 59 0.7 268 9.6
2009-04-24 08:01:21 51°12.18 2°48.624 58.9 0.7 268 9.5
2009-04-24 08:01:26 51°12.18 2°48.623 58.7 0.7 267 9.5
2009-04-24 08:01:31 51°12.18 2°48.621 58.4 0.7 264 9.5
2009-04-24 08:01:36 51°12.18 2°48.62 58.1 0.7 266 9.5
2009-04-24 08:01:41 51°12.18 2°48.618 57.8 0.8 266 9.5
2009-04-24 08:01:46 51°12.18 2°48.616 57.4 0.7 264 9.5
2009-04-24 08:01:51 51°12.18 2°48.615 57 0.8 264 9.5
2009-04-24 08:01:56 51°12.18 2°48.613 56.7 0.8 265 9.5
2009-04-24 08:02:00 51°12.18 2°48.612 56.3 0.8 264 9.5
2009-04-24 08:02:06 51°12.18 2°48.609 56 0.8 264 9.6
2009-04-24 08:02:11 51°12.179 2°48.608 55.8 0.8 263 9.6
2009-04-24 08:02:16 51°12.179 2°48.606 55.5 0.8 266 9.6
2009-04-24 08:02:21 51°12.179 2°48.604 55.2 0.8 263 9.6
2009-04-24 08:02:26 51°12.179 2°48.603 55.1 0.8 262 9.6
2009-04-24 08:02:31 51°12.179 2°48.601 54.8 0.9 263 9.6
2009-04-24 08:02:36 51°12.179 2°48.599 54.6 0.9 263 9.6
2009-04-24 08:02:40 51°12.178 2°48.597 54.4 0.9 265 9.7
2009-04-24 08:02:46 51°12.178 2°48.595 54.1 0.9 264 9.6
2009-04-24 08:02:51 51°12.178 2°48.593 53.8 0.9 263 9.6
2009-04-24 08:02:55 51°12.178 2°48.591 53.3 0.9 264 9.6
2009-04-24 08:03:01 51°12.178 2°48.589 53.1 0.9 264 9.6
2009-04-24 08:03:06 51°12.177 2°48.587 53 0.9 264 9.6
2009-04-24 08:03:11 51°12.177 2°48.585 52.8 0.9 264 9.6
2009-04-24 08:03:16 51°12.177 2°48.583 52.6 0.9 262 9.6
2009-04-24 08:03:20 51°12.177 2°48.581 52.5 0.9 262 9.6
2009-04-24 08:03:26 51°12.177 2°48.579 52.4 0.9 260 9.6
2009-04-24 08:03:31 51°12.176 2°48.576 52.3 0.9 261 9.7
2009-04-24 08:03:36 51°12.176 2°48.574 52.3 0.9 260 9.7
2009-04-24 08:03:41 51°12.176 2°48.572 52.4 0.9 261 9.7
2009-04-24 08:03:46 51°12.176 2°48.57 52.4 0.9 259 9.7
2009-04-24 08:03:51 51°12.176 2°48.568 52.4 1 262 9.7
2009-04-24 08:03:56 51°12.175 2°48.566 52.4 1 259 9.6
2009-04-24 08:04:00 51°12.175 2°48.564 52.4 1 263 9.7
2009-04-24 08:04:06 51°12.175 2°48.561 52.4 1.1 268 9.7
2009-04-24 08:04:11 51°12.175 2°48.559 52.5 0.9 252 9.7
2009-04-24 08:04:16 51°12.175 2°48.557 52.6 1.1 265 9.7
2009-04-24 08:04:20 51°12.175 2°48.555 52.6 1 254 9.7
2009-04-24 08:04:26 51°12.174 2°48.552 52.6 1.1 264 9.7
2009-04-24 08:04:31 51°12.174 2°48.55 52.6 1 255 9.7
2009-04-24 08:04:36 51°12.174 2°48.548 52.6 1 262 9.7
2009-04-24 08:04:41 51°12.173 2°48.546 52.6 1 258 9.7
2009-04-24 08:04:46 51°12.173 2°48.543 52.7 1 263 9.7
2009-04-24 08:04:51 51°12.173 2°48.541 52.8 1 258 9.8
2009-04-24 08:04:56 51°12.172 2°48.539 53 1 261 9.8
2009-04-24 08:05:00 51°12.172 2°48.537 53.1 1 259 9.7
2009-04-24 08:05:06 51°12.172 2°48.534 53.3 1 261 9.7
2009-04-24 08:05:11 51°12.172 2°48.532 53.5 1 258 9.8
2009-04-24 08:05:16 51°12.172 2°48.53 53.7 1 261 9.8
2009-04-24 08:05:21 51°12.171 2°48.527 53.8 1 260 9.8
2009-04-24 08:05:26 51°12.171 2°48.525 53.9 1 262 9.8
2009-04-24 08:05:31 51°12.171 2°48.523 54.1 1 260 9.8
2009-04-24 08:05:36 51°12.171 2°48.521 54.4 1 260 9.8
2009-04-24 08:05:40 51°12.17 2°48.519 54.6 1 260 9.8
2009-04-24 08:05:46 51°12.17 2°48.516 54.8 1 260 9.8
2009-04-24 08:05:51 51°12.17 2°48.514 55 1 258 9.9
2009-04-24 08:05:55 51°12.169 2°48.512 55.2 1 257 9.8
2009-04-24 08:06:00 51°12.169 2°48.51 55.4 1 258 9.8
2009-04-24 08:06:06 51°12.169 2°48.507 55.6 1 257 9.9
2009-04-24 08:06:11 51°12.169 2°48.505 55.9 1 257 9.8
2009-04-24 08:06:16 51°12.168 2°48.503 56.2 1 256 9.9
2009-04-24 08:06:21 51°12.168 2°48.501 56.5 1 256 9.8
2009-04-24 08:06:26 51°12.168 2°48.498 56.9 1 256 9.8
2009-04-24 08:06:31 51°12.167 2°48.496 57.4 1 256 9.8
2009-04-24 08:06:36 51°12.167 2°48.494 57.8 1 255 9.9
2009-04-24 08:06:40 51°12.167 2°48.492 58.2 1 257 9.9
2009-04-24 08:06:46 51°12.166 2°48.49 58.8 0.8 257 9.8
2009-04-24 08:06:51 51°12.166 2°48.488 59.3 0.6 278 9.8
2009-04-24 08:06:55 51°12.166 2°48.488 61.3 0.3 278 9.8
2009-04-24 08:07:01 51°12.167 2°48.488 64 0.2 339 9.8
2009-04-24 08:07:06 51°12.167 2°48.488 65.6 0.4 45 9.8
2009-04-24 08:07:11 51°12.168 2°48.489 66.3 0.7 53 9.8
2009-04-24 08:07:16 51°12.168 2°48.491 66.5 1 57 9.8
2009-04-24 08:07:21 51°12.169 2°48.494 66.5 1.3 58 9.9
2009-04-24 08:07:26 51°12.171 2°48.497 65.9 1.7 59 9.8